EDT,Max TemperatureF,Mean TemperatureF,Min TemperatureF,Max Dew PointF,MeanDew PointF,Min DewpointF,Max Humidity, Mean Humidity, Min Humidity, Max Sea Level PressureIn, Mean Sea Level PressureIn, Min Sea Level PressureIn, Max VisibilityMiles, Mean VisibilityMiles, Min VisibilityMiles, Max Wind SpeedMPH, Mean Wind SpeedMPH, Max Gust SpeedMPH,PrecipitationIn, CloudCover, Events, WindDirDegrees
2012-9-1,87,78,69,72,69,68,94,86,52,30.17,30.12,30.05,10,9,0,10,1,17,0.00,3,Rain,177
2012-9-2,89,78,68,72,69,66,100,77,49,30.06,29.98,29.89,10,8,5,6,1,,0.00,3,,172
2012-9-3,82,76,69,72,70,68,100,87,65,29.98,29.94,29.89,10,7,2,14,1,21,0.00,6,Rain,102
2012-9-4,87,78,68,72,69,68,100,82,52,29.95,29.90,29.85,10,8,2,9,2,,0.00,6,,217
2012-9-5,87,78,68,70,67,63,100,80,43,29.94,29.88,29.84,10,8,0,6,0,,0.00,3,Fog,245
2012-9-6,87,78,68,70,68,66,100,76,49,29.99,29.94,29.88,10,7,3,9,2,,0.00,2,,219
2012-9-7,89,76,62,70,65,61,100,74,40,29.99,29.92,29.76,10,7,2,8,1,,0.00,1,,214
2012-9-8,75,65,55,64,59,52,94,79,53,29.94,29.80,29.68,10,9,2,10,3,26,0.00,5,Rain,239
2012-9-9,77,64,51,55,52,45,100,70,34,30.07,29.98,29.91,10,10,7,7,1,,0.00,5,,256
2012-9-10,77,62,48,55,46,36,100,65,27,30.24,30.18,30.08,10,10,2,8,1,,0.00,0,,32
2012-9-11,80,61,42,52,45,41,100,66,26,30.33,30.27,30.23,10,10,4,10,1,,0.00,0,,85
2012-9-12,86,66,46,59,51,45,93,67,27,30.34,30.29,30.24,10,10,10,7,1,,0.00,0,,198
2012-9-13,86,68,51,61,55,50,100,71,29,30.36,30.29,30.23,10,10,7,8,1,,0.00,0,,199
2012-9-14,86,70,53,61,56,48,100,70,29,30.29,30.23,30.16,10,9,5,7,1,,0.00,3,,318
2012-9-15,77,62,46,52,47,41,94,65,29,30.35,30.27,30.19,10,10,10,7,1,,0.00,0,,46
2012-9-16,78,64,50,54,47,39,94,67,26,30.20,30.14,30.07,10,10,10,7,1,,0.00,0,,91
2012-9-17,78,64,50,63,54,46,94,78,44,30.09,29.99,29.85,10,9,3,10,1,,0.00,4,Rain,201
2012-9-18,69,63,57,64,59,46,100,87,63,29.99,29.76,29.63,10,7,1,9,2,16,0.00,7,Rain,258
2012-9-19,68,54,39,46,39,30,100,65,26,30.21,30.14,30.00,10,10,10,7,1,,0.00,0,,87
2012-9-20,77,57,37,54,45,36,100,70,32,30.14,30.06,29.98,10,9,0,12,2,17,0.00,1,Fog,220
2012-9-21,78,66,55,57,54,48,94,65,36,30.05,29.97,29.82,10,10,10,10,3,17,0.00,4,,213
2012-9-22,77,62,44,55,46,28,73,49,23,30.16,29.92,29.80,10,10,7,16,9,29,0.00,4,Rain,247
2012-9-23,64,48,33,43,37,32,93,67,32,30.25,30.21,30.16,10,10,10,8,1,,0.00,4,,254
2012-9-24,68,52,35,43,37,32,100,67,26,30.32,30.23,30.12,10,9,0,7,1,,0.00,1,Fog,205
2012-9-25,64,50,37,54,45,36,94,82,49,30.15,30.11,30.05,10,10,10,17,1,22,0.00,5,Rain,212
2012-9-26,80,68,55,66,59,54,100,81,45,30.18,30.10,30.04,10,8,1,16,4,23,0.00,5,Rain,226
2012-9-27,73,66,59,64,62,57,100,91,69,30.19,30.14,30.09,10,5,0,10,1,17,0.00,6,Fog-Rain,227
2012-9-28,62,56,51,63,56,52,100,91,72,30.15,30.11,30.07,10,6,1,6,1,,0.00,7,Rain,51
2012-9-29,69,58,46,52,48,41,100,76,35,30.10,30.04,29.98,10,8,2,6,1,,0.00,4,,62
2012-9-30,73,57,41,52,46,41,100,73,33,29.98,29.90,29.83,10,9,5,9,1,,0.00,2,,257